createdAt,value
2023-11-18T00:00:40.167Z,98.10
2023-11-18T00:01:40.189Z,98.10
2023-11-18T00:02:40.368Z,98.10
2023-11-18T00:03:40.175Z,98.10
2023-11-18T00:04:40.153Z,97.99
2023-11-18T00:05:40.085Z,97.89
2023-11-18T00:06:40.090Z,97.78
2023-11-18T00:07:40.095Z,97.78
2023-11-18T00:08:40.033Z,97.78
2023-11-18T00:09:40.035Z,97.78
2023-11-18T00:10:40.129Z,97.37
2023-11-18T00:11:40.023Z,97.27
2023-11-18T00:12:40.022Z,96.95
2023-11-18T00:13:40.140Z,96.89
2023-11-18T00:14:39.974Z,97.20
2023-11-18T00:15:39.969Z,97.31
2023-11-18T00:16:40.284Z,97.41
2023-11-18T00:17:40.033Z,97.41
2023-11-18T00:18:39.926Z,97.31
2023-11-18T00:19:39.937Z,97.41
2023-11-18T00:20:39.906Z,97.31
2023-11-18T00:21:39.880Z,97.00
2023-11-18T00:22:39.950Z,97.10
2023-11-18T00:23:39.866Z,97.20
2023-11-18T00:24:39.859Z,97.10
2023-11-18T00:25:39.874Z,97.20
2023-11-18T00:26:39.817Z,97.41
2023-11-18T00:27:39.864Z,97.41
2023-11-18T00:28:39.885Z,97.31
2023-11-18T00:29:39.772Z,97.10
2023-11-18T00:30:39.772Z,97.31
2023-11-18T00:31:39.983Z,97.31
2023-11-18T00:32:39.966Z,97.31
2023-11-18T00:33:39.794Z,97.00
2023-11-18T00:34:39.762Z,96.89
2023-11-18T00:35:39.691Z,96.89
2023-11-18T00:36:39.684Z,96.89
2023-11-18T00:37:39.851Z,96.89
2023-11-18T00:38:39.656Z,97.00
2023-11-18T00:39:39.645Z,96.89
2023-11-18T00:40:39.682Z,97.00
2023-11-18T00:41:39.612Z,97.00
2023-11-18T00:42:39.674Z,97.20
2023-11-18T00:43:39.617Z,97.31
2023-11-18T00:44:39.565Z,97.20
2023-11-18T00:45:39.572Z,97.31
2023-11-18T00:46:39.632Z,97.31
2023-11-18T00:47:39.617Z,97.31
2023-11-18T00:48:39.512Z,97.10
2023-11-18T00:49:39.542Z,97.10
2023-11-18T00:50:39.486Z,97.10
2023-11-18T00:51:39.497Z,97.10
2023-11-18T00:52:39.683Z,97.10
2023-11-18T00:53:39.441Z,97.10
2023-11-18T00:54:39.444Z,96.69
2023-11-18T00:55:39.464Z,96.48
2023-11-18T00:56:39.410Z,96.48
2023-11-18T00:57:39.476Z,96.58
2023-11-18T00:58:39.430Z,96.64
2023-11-18T00:59:39.377Z,96.75
2023-11-18T01:00:39.360Z,96.85
2023-11-18T01:01:39.444Z,97.06
2023-11-18T01:02:39.395Z,97.16
2023-11-18T01:03:39.359Z,97.16
2023-11-18T01:04:39.349Z,97.27
2023-11-18T01:05:39.291Z,97.27
2023-11-18T01:06:39.280Z,97.27
2023-11-18T01:07:39.313Z,97.27
2023-11-18T01:08:39.265Z,97.27
2023-11-18T01:09:39.271Z,97.16
2023-11-18T01:10:39.262Z,96.95
2023-11-18T01:11:39.210Z,96.85
2023-11-18T01:12:39.192Z,96.75
2023-11-18T01:13:39.225Z,96.75
2023-11-18T01:14:40.229Z,96.75
2023-11-18T01:15:39.195Z,96.64
2023-11-18T01:16:39.140Z,96.44
2023-11-18T01:17:39.164Z,96.54
2023-11-18T01:18:39.203Z,96.33
2023-11-18T01:19:39.251Z,96.12
2023-11-18T01:20:39.123Z,96.02
2023-11-18T01:21:39.108Z,96.44
2023-11-18T01:22:39.100Z,96.64
2023-11-18T01:23:39.047Z,96.64
2023-11-18T01:24:39.066Z,96.54
2023-11-18T01:25:39.028Z,95.92
2023-11-18T01:26:39.034Z,95.71
2023-11-18T01:27:39.047Z,95.71
2023-11-18T01:28:39.016Z,95.92
2023-11-18T01:29:38.969Z,96.23
2023-11-18T01:30:38.972Z,96.33
2023-11-18T01:31:49.883Z,96.54
2023-11-18T01:32:39.018Z,96.64
2023-11-18T01:33:38.931Z,96.75
2023-11-18T01:34:38.914Z,96.75
2023-11-18T01:35:38.887Z,96.64
2023-11-18T01:36:38.882Z,96.44
2023-11-18T01:37:38.899Z,96.23
2023-11-18T01:38:38.917Z,96.02
2023-11-18T01:39:38.836Z,96.02
2023-11-18T01:40:38.854Z,96.02
2023-11-18T01:41:38.826Z,95.61
2023-11-18T01:42:38.789Z,95.40
2023-11-18T01:43:38.805Z,95.40
2023-11-18T01:44:38.803Z,95.50
2023-11-18T01:45:38.819Z,95.61
2023-11-18T01:46:38.782Z,95.92
2023-11-18T01:47:38.789Z,96.12
2023-11-18T01:48:38.719Z,96.23
2023-11-18T01:49:38.726Z,96.33
2023-11-18T01:50:38.735Z,96.54
2023-11-18T01:51:38.675Z,96.54
2023-11-18T01:52:38.695Z,96.64
2023-11-18T01:53:38.659Z,96.70
2023-11-18T01:54:38.628Z,96.81
2023-11-18T01:55:38.703Z,96.91
2023-11-18T01:56:38.646Z,97.02
2023-11-18T01:57:38.635Z,97.02
2023-11-18T01:58:38.610Z,96.81
2023-11-18T01:59:38.580Z,96.75
2023-11-18T02:00:38.562Z,96.75
2023-11-18T02:01:38.622Z,96.54
2023-11-18T02:02:38.692Z,96.64
2023-11-18T02:03:38.589Z,96.64
2023-11-18T02:04:38.730Z,96.64
2023-11-18T02:05:38.492Z,96.64
2023-11-18T02:06:38.478Z,96.64
2023-11-18T02:07:38.760Z,96.64
2023-11-18T02:08:38.482Z,96.64
2023-11-18T02:09:38.431Z,96.33
2023-11-18T02:10:38.514Z,96.12
2023-11-18T02:11:38.413Z,96.02
2023-11-18T02:12:38.391Z,95.92
2023-11-18T02:13:38.422Z,96.02
2023-11-18T02:14:38.429Z,96.02
2023-11-18T02:15:38.369Z,96.02
2023-11-18T02:16:38.388Z,96.02
2023-11-18T02:17:38.385Z,96.12
2023-11-18T02:18:38.387Z,96.12
2023-11-18T02:19:38.351Z,96.23
2023-11-18T02:20:38.378Z,96.33
2023-11-18T02:21:38.281Z,96.44
2023-11-18T02:22:38.305Z,96.44
2023-11-18T02:23:38.258Z,96.54
2023-11-18T02:24:38.242Z,96.54
2023-11-18T02:25:38.249Z,96.54
2023-11-18T02:26:38.232Z,96.64
2023-11-18T02:27:38.207Z,96.75
2023-11-18T02:28:38.240Z,96.85
2023-11-18T02:29:38.296Z,96.85
2023-11-18T02:30:38.158Z,96.95
2023-11-18T02:31:38.140Z,97.16
2023-11-18T02:32:38.400Z,97.27
2023-11-18T02:33:38.216Z,97.27
2023-11-18T02:34:38.132Z,97.16
2023-11-18T02:35:38.087Z,96.95
2023-11-18T02:36:38.082Z,96.85
2023-11-18T02:37:38.080Z,96.75
2023-11-18T02:38:39.692Z,96.75
2023-11-18T02:39:38.082Z,96.75
2023-11-18T02:40:38.077Z,96.95
2023-11-18T02:41:38.044Z,96.95
2023-11-18T02:42:38.009Z,96.95
2023-11-18T02:43:38.005Z,96.85
2023-11-18T02:44:38.000Z,96.54
2023-11-18T02:45:37.956Z,96.54
2023-11-18T02:46:37.988Z,96.64
2023-11-18T02:47:37.981Z,96.85
2023-11-18T02:48:37.920Z,96.95
2023-11-18T02:49:37.931Z,96.95
2023-11-18T02:50:37.954Z,97.06
2023-11-18T02:51:37.867Z,97.06
2023-11-18T02:52:37.904Z,97.16
2023-11-18T02:53:37.877Z,97.12
2023-11-18T02:54:37.833Z,97.12
2023-11-18T02:55:37.864Z,97.22
2023-11-18T02:56:37.842Z,97.22
2023-11-18T02:57:37.991Z,97.22
2023-11-18T02:58:37.830Z,97.22
2023-11-18T02:59:37.811Z,97.12
2023-11-18T03:00:37.785Z,97.02
2023-11-18T03:01:37.850Z,97.02
2023-11-18T03:02:37.799Z,97.12
2023-11-18T03:03:37.771Z,97.22
2023-11-18T03:04:37.788Z,97.12
2023-11-18T03:05:37.779Z,97.12
2023-11-18T03:06:37.696Z,97.12
2023-11-18T03:07:37.679Z,97.12
2023-11-18T03:08:37.695Z,97.22
2023-11-18T03:09:37.639Z,97.22
2023-11-18T03:10:37.633Z,97.22
2023-11-18T03:11:37.617Z,97.12
2023-11-18T03:12:37.604Z,97.02
2023-11-18T03:13:37.615Z,97.02
2023-11-18T03:14:37.603Z,97.12
2023-11-18T03:15:37.570Z,97.12
2023-11-18T03:16:37.626Z,97.22
2023-11-18T03:17:37.562Z,97.22
2023-11-18T03:18:37.530Z,97.22
2023-11-18T03:19:38.030Z,97.22
2023-11-18T03:20:37.531Z,97.22
2023-11-18T03:21:37.498Z,97.12
2023-11-18T03:22:37.522Z,97.12
2023-11-18T03:23:37.454Z,97.12
2023-11-18T03:24:37.434Z,97.22
2023-11-18T03:25:37.467Z,97.33
2023-11-18T03:26:37.432Z,97.33
2023-11-18T03:27:37.383Z,97.43
2023-11-18T03:28:37.408Z,97.33
2023-11-18T03:29:37.375Z,97.33
2023-11-18T03:30:37.352Z,97.12
2023-11-18T03:31:37.352Z,97.02
2023-11-18T03:32:37.483Z,96.39
2023-11-18T03:33:37.371Z,96.29
2023-11-18T03:34:37.365Z,96.29
2023-11-18T03:35:37.330Z,96.29
2023-11-18T03:36:37.281Z,96.29
2023-11-18T03:37:37.336Z,96.39
2023-11-18T03:38:37.254Z,96.39
2023-11-18T03:39:37.249Z,96.50
2023-11-18T03:40:37.321Z,96.50
2023-11-18T03:41:37.227Z,96.50
2023-11-18T03:42:37.206Z,96.60
2023-11-18T03:43:37.245Z,96.81
2023-11-18T03:44:37.172Z,97.06
2023-11-18T03:45:37.181Z,97.16
2023-11-18T03:46:37.225Z,97.27
2023-11-18T03:47:37.149Z,97.37
2023-11-18T03:48:37.131Z,97.37
2023-11-18T03:49:37.189Z,97.58
2023-11-18T03:50:37.080Z,97.78
2023-11-18T03:51:37.073Z,97.99
2023-11-18T03:52:37.105Z,98.20
2023-11-18T03:53:37.051Z,98.30
2023-11-18T03:54:37.045Z,98.51
2023-11-18T03:55:37.066Z,98.82
2023-11-18T03:56:37.019Z,98.93
2023-11-18T03:57:37.024Z,98.93
2023-11-18T03:58:37.005Z,99.03
2023-11-18T03:59:36.961Z,99.03
2023-11-18T04:00:36.959Z,99.03
2023-11-18T04:01:37.042Z,99.03
2023-11-18T04:02:37.189Z,98.93
2023-11-18T04:03:36.934Z,98.82
2023-11-18T04:04:37.007Z,98.72
2023-11-18T04:05:36.883Z,98.72
2023-11-18T04:06:36.907Z,98.61
2023-11-18T04:07:36.888Z,98.61
2023-11-18T04:08:36.838Z,98.51
2023-11-18T04:09:36.843Z,98.51
2023-11-18T04:10:36.869Z,98.30
2023-11-18T04:11:36.822Z,98.30
2023-11-18T04:12:36.867Z,98.30
2023-11-18T04:13:36.791Z,98.41
2023-11-18T04:14:36.768Z,98.41
2023-11-18T04:15:36.764Z,98.41
2023-11-18T04:16:36.792Z,98.30
2023-11-18T04:17:36.874Z,98.30
2023-11-18T04:18:36.773Z,98.20
2023-11-18T04:19:36.757Z,98.20
2023-11-18T04:20:36.686Z,98.10
2023-11-18T04:21:36.692Z,97.99
2023-11-18T04:22:36.720Z,97.99
2023-11-18T04:23:36.667Z,98.10
2023-11-18T04:24:36.653Z,98.10
2023-11-18T04:25:36.665Z,98.10
2023-11-18T04:26:36.596Z,98.20
2023-11-18T04:27:36.586Z,98.26
2023-11-18T04:28:36.628Z,98.26
2023-11-18T04:29:36.583Z,98.26
2023-11-18T04:30:36.631Z,98.16
2023-11-18T04:31:36.558Z,97.85
2023-11-18T04:32:36.553Z,97.37
2023-11-18T04:33:36.576Z,97.58
2023-11-18T04:34:36.530Z,97.68
2023-11-18T04:35:36.492Z,97.89
2023-11-18T04:36:36.523Z,98.10
2023-11-18T04:37:36.663Z,98.30
2023-11-18T04:38:36.487Z,98.41
2023-11-18T04:39:36.447Z,98.41
2023-11-18T04:40:36.574Z,98.41
2023-11-18T04:41:36.452Z,98.41
2023-11-18T04:42:36.440Z,98.41
2023-11-18T04:43:42.714Z,98.41
2023-11-18T04:44:36.373Z,98.51
2023-11-18T04:45:36.461Z,98.41
2023-11-18T04:46:36.342Z,98.41
2023-11-18T04:47:36.457Z,98.30
2023-11-18T04:48:39.939Z,98.20
2023-11-18T04:49:36.369Z,98.20
2023-11-18T04:50:36.321Z,98.20
2023-11-18T04:51:36.268Z,98.20
2023-11-18T04:52:36.469Z,98.10
2023-11-18T04:53:36.267Z,97.89
2023-11-18T04:54:36.274Z,97.99
2023-11-18T04:55:36.251Z,98.10
2023-11-18T04:56:36.215Z,98.10
2023-11-18T04:57:36.183Z,97.78
2023-11-18T04:58:36.257Z,97.89
2023-11-18T04:59:36.195Z,97.78
2023-11-18T05:00:36.172Z,97.78
2023-11-18T05:01:36.233Z,97.78
2023-11-18T05:02:36.178Z,97.89
2023-11-18T05:03:36.167Z,97.89
2023-11-18T05:04:36.135Z,97.78
2023-11-18T05:05:36.121Z,97.78
2023-11-18T05:06:36.104Z,97.78
2023-11-18T05:07:36.930Z,97.68
2023-11-18T05:08:36.151Z,97.68
2023-11-18T05:09:36.930Z,97.58
2023-11-18T05:10:36.936Z,97.27
2023-11-18T05:11:36.037Z,97.37
2023-11-18T05:12:35.987Z,97.37
2023-11-18T05:13:36.017Z,97.37
2023-11-18T05:14:35.970Z,97.47
2023-11-18T05:15:35.959Z,97.47
2023-11-18T05:16:35.979Z,97.58
2023-11-18T05:17:36.033Z,97.58
2023-11-18T05:18:36.056Z,97.68
2023-11-18T05:19:35.946Z,97.68
2023-11-18T05:20:35.890Z,97.58
2023-11-18T05:21:35.907Z,97.47
2023-11-18T05:22:35.904Z,97.37
2023-11-18T05:23:35.892Z,97.47
2023-11-18T05:24:35.877Z,97.58
2023-11-18T05:25:35.843Z,97.83
2023-11-18T05:26:35.810Z,97.93
2023-11-18T05:27:35.801Z,97.89
2023-11-18T05:28:35.980Z,98.03
2023-11-18T05:29:35.803Z,98.03
2023-11-18T05:30:35.772Z,98.03
2023-11-18T05:31:35.891Z,98.03
2023-11-18T05:32:35.784Z,98.03
2023-11-18T05:33:35.827Z,97.83
2023-11-18T05:34:35.765Z,98.03
2023-11-18T05:35:35.691Z,98.35
2023-11-18T05:36:35.664Z,98.55
2023-11-18T05:37:35.688Z,98.66
2023-11-18T05:38:35.654Z,98.76
2023-11-18T05:39:35.648Z,98.86
2023-11-18T05:40:35.718Z,98.86
2023-11-18T05:41:35.608Z,98.86
2023-11-18T05:42:37.903Z,98.72
2023-11-18T05:43:35.623Z,98.72
2023-11-18T05:44:35.558Z,98.51
2023-11-18T05:45:35.565Z,98.51
2023-11-18T05:46:35.656Z,98.41
2023-11-18T05:47:35.597Z,98.30
2023-11-18T05:48:35.536Z,98.20
2023-11-18T05:49:35.560Z,98.10
2023-11-18T05:50:35.550Z,97.99
2023-11-18T05:51:35.548Z,97.89
2023-11-18T05:52:35.518Z,97.83
2023-11-18T05:53:35.453Z,97.93
2023-11-18T05:54:35.456Z,98.14
2023-11-18T05:55:35.450Z,98.24
2023-11-18T05:56:35.421Z,98.24
2023-11-18T05:57:35.538Z,98.35
2023-11-18T05:58:35.433Z,98.35
2023-11-18T05:59:35.407Z,98.45
2023-11-18T06:00:41.147Z,98.35
2023-11-18T06:01:35.426Z,98.35
2023-11-18T06:02:35.409Z,98.24
2023-11-18T06:03:35.485Z,97.52
2023-11-18T06:04:35.324Z,97.20
2023-11-18T06:05:35.298Z,97.10
2023-11-18T06:06:35.282Z,97.10
2023-11-18T06:07:35.360Z,97.10
2023-11-18T06:08:35.317Z,97.31
2023-11-18T06:09:35.235Z,97.41
2023-11-18T06:10:35.236Z,97.31
2023-11-18T06:11:35.221Z,97.10
2023-11-18T06:12:35.218Z,97.10
2023-11-18T06:13:35.191Z,97.10
2023-11-18T06:14:35.245Z,97.14
2023-11-18T06:15:35.168Z,97.10
2023-11-18T06:16:35.270Z,97.31
2023-11-18T06:17:35.225Z,97.31
2023-11-18T06:18:35.145Z,97.31
2023-11-18T06:19:35.174Z,97.41
2023-11-18T06:20:35.127Z,97.41
2023-11-18T06:21:35.107Z,97.41
2023-11-18T06:22:35.116Z,97.41
2023-11-18T06:23:35.075Z,97.41
2023-11-18T06:24:35.034Z,97.41
2023-11-18T06:25:35.037Z,97.31
2023-11-18T06:26:35.032Z,97.20
2023-11-18T06:27:34.997Z,97.20
2023-11-18T06:28:35.101Z,97.20
2023-11-18T06:29:34.976Z,97.10
2023-11-18T06:30:35.012Z,97.10
2023-11-18T06:31:34.981Z,97.10
2023-11-18T06:32:34.986Z,96.79
2023-11-18T06:33:34.926Z,96.79
2023-11-18T06:34:35.097Z,96.79
2023-11-18T06:35:34.883Z,96.79
2023-11-18T06:36:34.891Z,96.79
2023-11-18T06:37:34.878Z,96.89
2023-11-18T06:38:34.879Z,97.00
2023-11-18T06:39:34.847Z,97.10
2023-11-18T06:40:34.840Z,97.20
2023-11-18T06:41:35.347Z,97.20
2023-11-18T06:42:34.792Z,97.31
2023-11-18T06:43:34.885Z,97.31
2023-11-18T06:44:34.770Z,97.41
2023-11-18T06:45:34.768Z,97.52
2023-11-18T06:46:35.039Z,97.52
2023-11-18T06:47:34.844Z,97.52
2023-11-18T06:48:34.749Z,97.37
2023-11-18T06:49:34.725Z,97.20
2023-11-18T06:50:34.697Z,96.69
2023-11-18T06:51:34.672Z,96.69
2023-11-18T06:52:34.663Z,96.69
2023-11-18T06:53:34.670Z,96.79
2023-11-18T06:54:34.655Z,97.00
2023-11-18T06:55:34.654Z,97.10
2023-11-18T06:56:34.614Z,97.10
2023-11-18T06:57:34.602Z,97.20
2023-11-18T06:58:34.587Z,97.20
2023-11-18T06:59:34.570Z,97.20
2023-11-18T07:00:34.598Z,97.10
2023-11-18T07:01:34.570Z,97.31
2023-11-18T07:02:34.581Z,97.41
2023-11-18T07:03:34.688Z,97.41
2023-11-18T07:04:34.498Z,97.31
2023-11-18T07:05:34.508Z,97.31
2023-11-18T07:06:34.487Z,97.20
2023-11-18T07:07:34.500Z,97.20
2023-11-18T07:08:34.469Z,97.41
2023-11-18T07:09:34.449Z,97.52
2023-11-18T07:10:34.428Z,97.62
2023-11-18T07:11:34.423Z,97.72
2023-11-18T07:12:34.401Z,97.72
2023-11-18T07:13:34.413Z,97.83
2023-11-18T07:14:34.410Z,97.78
2023-11-18T07:15:34.361Z,97.68
2023-11-18T07:16:34.350Z,97.68
2023-11-18T07:17:34.354Z,97.68
2023-11-18T07:18:35.160Z,97.89
2023-11-18T07:19:34.390Z,97.89
2023-11-18T07:20:34.305Z,97.99
2023-11-18T07:21:34.300Z,97.99
2023-11-18T07:22:34.275Z,98.10
2023-11-18T07:23:34.243Z,98.10
2023-11-18T07:24:34.277Z,98.10
2023-11-18T07:25:34.222Z,97.99
2023-11-18T07:26:34.223Z,97.78
2023-11-18T07:27:34.194Z,97.68
2023-11-18T07:28:34.179Z,97.58
2023-11-18T07:29:34.193Z,97.16
2023-11-18T07:30:34.184Z,96.64
2023-11-18T07:31:34.173Z,96.23
2023-11-18T07:32:34.168Z,96.12
2023-11-18T07:33:34.128Z,96.23
2023-11-18T07:34:34.121Z,96.33
2023-11-18T07:35:34.125Z,96.33
2023-11-18T07:36:34.097Z,96.54
2023-11-18T07:37:34.108Z,96.75
2023-11-18T07:38:34.059Z,96.85
2023-11-18T07:39:34.057Z,96.95
2023-11-18T07:40:34.069Z,97.02
2023-11-18T07:41:34.494Z,97.22
2023-11-18T07:42:33.999Z,97.33
2023-11-18T07:43:33.989Z,97.53
2023-11-18T07:44:34.980Z,97.64
2023-11-18T07:45:33.996Z,97.64
2023-11-18T07:46:33.970Z,97.74
2023-11-18T07:47:33.980Z,97.74
2023-11-18T07:48:33.948Z,97.85
2023-11-18T07:49:33.922Z,97.85
2023-11-18T07:50:33.893Z,97.64
2023-11-18T07:51:33.883Z,97.64
2023-11-18T07:52:33.905Z,97.64
2023-11-18T07:53:33.879Z,97.43
2023-11-18T07:54:33.904Z,97.43
2023-11-18T07:55:33.866Z,97.53
2023-11-18T07:56:34.475Z,97.64
2023-11-18T07:57:33.850Z,97.64
2023-11-18T07:58:33.799Z,97.53
2023-11-18T07:59:33.761Z,97.53
2023-11-18T08:00:33.746Z,97.64
2023-11-18T08:01:33.782Z,97.53
2023-11-18T08:02:33.822Z,97.43
2023-11-18T08:03:33.803Z,97.22
2023-11-18T08:04:33.735Z,97.12
2023-11-18T08:05:33.704Z,97.02
2023-11-18T08:06:33.690Z,97.02
2023-11-18T08:07:33.680Z,97.02
2023-11-18T08:08:33.664Z,97.12
2023-11-18T08:09:33.664Z,96.91
2023-11-18T08:10:33.630Z,96.81
2023-11-18T08:11:33.629Z,96.70
2023-11-18T08:12:33.597Z,96.81
2023-11-18T08:13:33.603Z,97.02
2023-11-18T08:14:33.594Z,97.12
2023-11-18T08:15:33.598Z,97.28
2023-11-18T08:16:33.606Z,97.38
2023-11-18T08:17:33.654Z,97.49
2023-11-18T08:18:33.517Z,97.59
2023-11-18T08:19:33.498Z,97.59
2023-11-18T08:20:33.505Z,97.69
2023-11-18T08:21:33.463Z,97.69
2023-11-18T08:22:33.476Z,97.49
2023-11-18T08:23:33.446Z,97.38
2023-11-18T08:24:33.427Z,97.17
2023-11-18T08:25:33.924Z,97.07
2023-11-18T08:26:33.404Z,97.07
2023-11-18T08:27:33.408Z,97.07
2023-11-18T08:28:33.386Z,97.28
2023-11-18T08:29:33.433Z,97.59
2023-11-18T08:30:33.376Z,97.69
2023-11-18T08:31:33.415Z,97.75
2023-11-18T08:32:33.469Z,97.86
2023-11-18T08:33:33.344Z,97.86
2023-11-18T08:34:33.334Z,97.96
2023-11-18T08:35:33.292Z,97.96
2023-11-18T08:36:33.269Z,97.96
2023-11-18T08:37:33.279Z,97.96
2023-11-18T08:38:33.244Z,97.86
2023-11-18T08:39:33.250Z,97.75
2023-11-18T08:40:33.226Z,97.65
2023-11-18T08:41:33.237Z,97.55
2023-11-18T08:42:33.232Z,97.44
2023-11-18T08:43:33.598Z,96.92
2023-11-18T08:44:33.179Z,96.09
2023-11-18T08:45:33.216Z,95.37
2023-11-18T08:46:33.219Z,95.57
2023-11-18T08:47:33.309Z,95.68
2023-11-18T08:48:33.172Z,95.78
2023-11-18T08:49:33.095Z,95.89
2023-11-18T08:50:33.509Z,95.99
2023-11-18T08:51:33.154Z,95.89
2023-11-18T08:52:33.073Z,95.89
2023-11-18T08:53:33.105Z,95.89
2023-11-18T08:54:33.069Z,95.89
2023-11-18T08:55:33.034Z,95.89
2023-11-18T08:56:33.017Z,95.89
2023-11-18T08:57:33.093Z,95.95
2023-11-18T08:58:32.974Z,95.95
2023-11-18T08:59:32.971Z,95.95
2023-11-18T09:00:32.998Z,96.05
2023-11-18T09:01:33.065Z,96.05
2023-11-18T09:02:39.031Z,96.15
2023-11-18T09:03:32.984Z,96.36
2023-11-18T09:04:32.945Z,96.26
2023-11-18T09:05:32.908Z,96.26
2023-11-18T09:06:32.936Z,96.15
2023-11-18T09:07:32.861Z,96.15
2023-11-18T09:08:32.847Z,96.15
2023-11-18T09:09:32.850Z,96.26
2023-11-18T09:10:32.865Z,96.26
2023-11-18T09:11:32.925Z,96.15
2023-11-18T09:12:32.807Z,96.05
2023-11-18T09:13:32.912Z,95.32
2023-11-18T09:14:32.856Z,94.39
2023-11-18T09:15:32.751Z,93.98
2023-11-18T09:16:32.742Z,94.08
2023-11-18T09:17:32.895Z,94.43
2023-11-18T09:18:32.835Z,94.95
2023-11-18T09:19:32.737Z,95.32
2023-11-18T09:20:32.672Z,95.43
2023-11-18T09:21:32.689Z,95.53
2023-11-18T09:22:32.663Z,95.53
2023-11-18T09:23:32.684Z,95.53
2023-11-18T09:24:35.295Z,95.43
2023-11-18T09:25:32.708Z,95.43
2023-11-18T09:26:32.617Z,95.32
2023-11-18T09:27:32.627Z,95.32
2023-11-18T09:28:32.581Z,95.22
2023-11-18T09:29:32.584Z,95.12
2023-11-18T09:30:32.553Z,95.12
2023-11-18T09:31:32.562Z,95.12
2023-11-18T09:32:32.670Z,94.91
2023-11-18T09:33:32.568Z,93.56
2023-11-18T09:34:32.492Z,94.08
2023-11-18T09:35:32.525Z,94.23
2023-11-18T09:36:32.466Z,94.02
2023-11-18T09:37:32.454Z,93.71
2023-11-18T09:38:32.545Z,93.60
2023-11-18T09:39:32.430Z,94.12
2023-11-18T09:40:32.429Z,94.02
2023-11-18T09:41:32.440Z,93.54
2023-11-18T09:42:32.387Z,93.65
2023-11-18T09:43:32.374Z,94.33
2023-11-18T09:44:32.357Z,95.06
2023-11-18T09:45:32.383Z,94.54
2023-11-18T09:46:33.297Z,94.12
2023-11-18T09:47:32.425Z,93.71
2023-11-18T09:48:32.314Z,93.81
2023-11-18T09:49:32.302Z,93.71
2023-11-18T09:50:32.374Z,93.60
2023-11-18T09:51:32.279Z,93.71
2023-11-18T09:52:32.264Z,94.33
2023-11-18T09:53:32.298Z,94.02
2023-11-18T09:54:32.226Z,93.29
2023-11-18T09:55:32.212Z,93.40
2023-11-18T09:56:32.200Z,93.91
2023-11-18T09:57:32.202Z,93.91
2023-11-18T09:58:32.184Z,93.40
2023-11-18T09:59:32.189Z,93.40
2023-11-18T10:00:32.163Z,93.60
2023-11-18T10:01:32.139Z,93.56
2023-11-18T10:02:32.259Z,92.94
2023-11-18T10:03:32.180Z,92.53
2023-11-18T10:04:32.130Z,92.63
2023-11-18T10:05:32.207Z,92.01
2023-11-18T10:06:32.057Z,92.11
2023-11-18T10:07:32.059Z,91.08
2023-11-18T10:08:32.044Z,90.87
2023-11-18T10:09:32.055Z,91.49
2023-11-18T10:10:32.031Z,91.28
2023-11-18T10:11:32.006Z,91.18
2023-11-18T10:12:32.007Z,91.91
2023-11-18T10:13:31.971Z,91.80
2023-11-18T10:14:31.957Z,91.70
2023-11-18T10:15:31.967Z,91.08
2023-11-18T10:16:31.936Z,91.45
2023-11-18T10:17:32.017Z,90.83
2023-11-18T10:18:31.985Z,89.79
2023-11-18T10:19:31.901Z,90.41
2023-11-18T10:20:31.902Z,90.99
2023-11-18T10:21:31.874Z,91.47
2023-11-18T10:22:31.857Z,90.70
2023-11-18T10:23:31.862Z,90.56
2023-11-18T10:24:31.851Z,90.93
2023-11-18T10:25:31.814Z,90.16
2023-11-18T10:26:31.818Z,89.61
2023-11-18T10:27:31.782Z,89.62
2023-11-18T10:28:31.776Z,86.32
2023-11-18T10:29:31.767Z,82.98
2023-11-18T10:30:31.738Z,81.75
2023-11-18T10:31:31.730Z,83.15
2023-11-18T10:32:31.979Z,83.42
2023-11-18T10:33:32.229Z,82.50
2023-11-18T10:34:31.685Z,82.87
2023-11-18T10:35:31.710Z,83.28
2023-11-18T10:36:31.669Z,85.10
2023-11-18T10:37:31.783Z,85.20
2023-11-18T10:38:31.657Z,84.23
2023-11-18T10:39:31.648Z,84.40
2023-11-18T10:40:31.609Z,82.24
2023-11-18T10:41:31.663Z,80.39
2023-11-18T10:42:31.711Z,81.79
2023-11-18T10:43:31.566Z,82.62
2023-11-18T10:44:31.616Z,81.38
2023-11-18T10:45:31.560Z,81.14
2023-11-18T10:46:31.638Z,81.45
2023-11-18T10:47:31.589Z,80.38
2023-11-18T10:48:31.507Z,79.87
2023-11-18T10:49:31.484Z,79.22
2023-11-18T10:50:31.538Z,79.69
2023-11-18T10:51:31.466Z,79.80
2023-11-18T10:52:31.446Z,78.63
2023-11-18T10:53:31.436Z,77.87
2023-11-18T10:54:31.419Z,76.24
2023-11-18T10:55:31.401Z,77.73
2023-11-18T10:56:31.428Z,77.19
2023-11-18T10:57:31.512Z,75.86
2023-11-18T10:58:31.372Z,74.49
2023-11-18T10:59:31.346Z,74.80
2023-11-18T11:00:31.347Z,74.76
2023-11-18T11:01:31.389Z,74.97
2023-11-18T11:02:31.416Z,74.63
2023-11-18T11:03:31.362Z,73.40
2023-11-18T11:04:31.291Z,71.63
2023-11-18T11:05:31.337Z,71.22
2023-11-18T11:06:31.337Z,70.81
2023-11-18T11:07:31.282Z,70.95
2023-11-18T11:08:39.154Z,71.83
2023-11-18T11:09:31.225Z,71.15
2023-11-18T11:10:31.213Z,72.55
2023-11-18T11:11:31.236Z,71.77
2023-11-18T11:12:31.216Z,71.49
2023-11-18T11:13:31.167Z,72.24
2023-11-18T11:14:31.153Z,72.69
2023-11-18T11:15:33.983Z,72.99
2023-11-18T11:16:31.153Z,72.99
2023-11-18T11:17:31.742Z,72.55
2023-11-18T11:18:31.141Z,71.86
2023-11-18T11:19:31.087Z,70.53
2023-11-18T11:20:31.316Z,72.00
2023-11-18T11:21:31.086Z,73.91
2023-11-18T11:22:31.036Z,74.19
2023-11-18T11:23:31.132Z,72.21
2023-11-18T11:24:31.018Z,71.80
2023-11-18T11:25:30.996Z,71.25
2023-11-18T11:26:31.199Z,71.77
2023-11-18T11:27:30.961Z,71.56
2023-11-18T11:28:31.037Z,70.13
2023-11-18T11:29:30.993Z,70.75
2023-11-18T11:30:30.938Z,69.96
2023-11-18T11:31:31.132Z,70.20
2023-11-18T11:32:30.915Z,72.48
2023-11-18T11:33:30.999Z,72.48
2023-11-18T11:34:30.928Z,73.20
2023-11-18T11:35:30.910Z,72.96
2023-11-18T11:36:30.851Z,72.72
2023-11-18T11:37:30.828Z,69.75
2023-11-18T11:38:30.830Z,70.57
2023-11-18T11:39:30.850Z,69.85
2023-11-18T11:40:30.839Z,70.67
2023-11-18T11:41:30.779Z,71.46
2023-11-18T11:42:30.776Z,70.61
2023-11-18T11:43:30.749Z,70.51
2023-11-18T11:44:31.563Z,69.56
2023-11-18T11:45:30.775Z,67.21
2023-11-18T11:46:30.820Z,68.63
2023-11-18T11:47:30.827Z,66.72
2023-11-18T11:48:30.717Z,68.46
2023-11-18T11:49:30.681Z,68.05
2023-11-18T11:50:30.740Z,66.45
2023-11-18T11:51:30.650Z,69.01
2023-11-18T11:52:30.633Z,69.38
2023-11-18T11:53:30.666Z,68.87
2023-11-18T11:54:30.638Z,69.18
2023-11-18T11:55:30.611Z,67.65
2023-11-18T11:56:30.596Z,67.75
2023-11-18T11:57:34.067Z,66.18
2023-11-18T11:58:30.555Z,66.59
2023-11-18T11:59:30.573Z,64.99
2023-11-18T12:00:30.505Z,65.30
2023-11-18T12:01:30.581Z,66.35
2023-11-18T12:02:30.887Z,67.68
2023-11-18T12:03:30.512Z,65.84
2023-11-18T12:04:30.534Z,65.84
2023-11-18T12:05:30.508Z,66.21
2023-11-18T12:06:30.446Z,66.49
2023-11-18T12:07:30.449Z,66.39
2023-11-18T12:08:30.429Z,65.74
2023-11-18T12:09:30.398Z,66.22
2023-11-18T12:10:30.408Z,66.22
2023-11-18T12:11:30.368Z,67.96
2023-11-18T12:12:30.399Z,67.41
2023-11-18T12:13:30.345Z,65.89
2023-11-18T12:14:30.382Z,65.07
2023-11-18T12:15:30.350Z,66.19
2023-11-18T12:16:30.327Z,64.15
2023-11-18T12:17:30.459Z,64.46
2023-11-18T12:18:30.310Z,65.89
2023-11-18T12:19:30.304Z,65.28
2023-11-18T12:20:30.255Z,65.89
2023-11-18T12:21:30.332Z,64.25
2023-11-18T12:22:30.220Z,64.97
2023-11-18T12:23:30.292Z,64.97
2023-11-18T12:24:30.205Z,63.64
2023-11-18T12:25:30.165Z,61.53
2023-11-18T12:26:30.217Z,62.48
2023-11-18T12:27:30.147Z,63.53
2023-11-18T12:28:30.157Z,64.11
2023-11-18T12:29:30.114Z,63.49
2023-11-18T12:30:30.106Z,62.61
2023-11-18T12:31:30.201Z,63.60
2023-11-18T12:32:30.108Z,63.70
2023-11-18T12:33:30.481Z,63.90
2023-11-18T12:34:30.056Z,62.48
2023-11-18T12:35:30.092Z,62.37
2023-11-18T12:36:30.043Z,62.17
2023-11-18T12:37:30.022Z,63.09
2023-11-18T12:38:30.103Z,62.20
2023-11-18T12:39:29.988Z,63.73
2023-11-18T12:40:29.978Z,62.81
2023-11-18T12:41:30.032Z,64.96
2023-11-18T12:42:29.945Z,66.01
2023-11-18T12:43:29.967Z,65.60
2023-11-18T12:44:29.967Z,66.52
2023-11-18T12:45:29.917Z,67.27
2023-11-18T12:46:29.931Z,68.12
2023-11-18T12:47:30.186Z,68.93
2023-11-18T12:48:29.869Z,68.35
2023-11-18T12:49:29.889Z,68.38
2023-11-18T12:50:30.062Z,69.07
2023-11-18T12:51:29.854Z,68.28
2023-11-18T12:52:29.803Z,69.31